sensor_id;sensor_type;location;lat;lon;timestamp;P1;durP1;ratioP1;P2;durP2;ratioP2
3767;SDS011;1899;49.966;7.106;2023-05-18T00:02:21;4.67;;;4.20;;
3767;SDS011;1899;49.966;7.106;2023-05-18T00:04:47;4.13;;;3.73;;
3767;SDS011;1899;49.966;7.106;2023-05-18T00:07:12;7.43;;;4.20;;
3767;SDS011;1899;49.966;7.106;2023-05-18T00:09:38;8.57;;;4.03;;
3767;SDS011;1899;49.966;7.106;2023-05-18T00:12:05;6.20;;;4.85;;
3767;SDS011;1899;49.966;7.106;2023-05-18T00:14:30;5.37;;;4.17;;
3767;SDS011;1899;49.966;7.106;2023-05-18T00:16:56;5.90;;;4.50;;
3767;SDS011;1899;49.966;7.106;2023-05-18T00:19:22;4.67;;;4.10;;
3767;SDS011;1899;49.966;7.106;2023-05-18T00:21:48;6.50;;;4.80;;
3767;SDS011;1899;49.966;7.106;2023-05-18T00:24:14;7.97;;;4.47;;
3767;SDS011;1899;49.966;7.106;2023-05-18T00:26:41;9.20;;;4.57;;
3767;SDS011;1899;49.966;7.106;2023-05-18T00:29:07;10.87;;;4.03;;
3767;SDS011;1899;49.966;7.106;2023-05-18T00:31:32;4.77;;;4.23;;
3767;SDS011;1899;49.966;7.106;2023-05-18T00:34:02;7.20;;;3.53;;
3767;SDS011;1899;49.966;7.106;2023-05-18T00:36:28;5.47;;;3.70;;
3767;SDS011;1899;49.966;7.106;2023-05-18T00:38:53;6.43;;;3.80;;
3767;SDS011;1899;49.966;7.106;2023-05-18T00:41:18;6.17;;;4.47;;
3767;SDS011;1899;49.966;7.106;2023-05-18T00:43:43;7.07;;;4.13;;
3767;SDS011;1899;49.966;7.106;2023-05-18T00:46:09;8.63;;;4.07;;
3767;SDS011;1899;49.966;7.106;2023-05-18T00:48:35;5.95;;;3.97;;
3767;SDS011;1899;49.966;7.106;2023-05-18T00:51:00;7.33;;;4.63;;
3767;SDS011;1899;49.966;7.106;2023-05-18T00:53:26;8.60;;;5.27;;
3767;SDS011;1899;49.966;7.106;2023-05-18T00:55:51;4.17;;;3.70;;
3767;SDS011;1899;49.966;7.106;2023-05-18T00:58:17;7.93;;;4.80;;
3767;SDS011;1899;49.966;7.106;2023-05-18T01:00:42;9.20;;;4.10;;
3767;SDS011;1899;49.966;7.106;2023-05-18T01:03:08;4.97;;;4.47;;
3767;SDS011;1899;49.966;7.106;2023-05-18T01:05:35;5.13;;;4.63;;
3767;SDS011;1899;49.966;7.106;2023-05-18T01:08:00;15.23;;;5.20;;
3767;SDS011;1899;49.966;7.106;2023-05-18T01:10:27;6.47;;;4.15;;
3767;SDS011;1899;49.966;7.106;2023-05-18T01:12:55;5.50;;;3.83;;
3767;SDS011;1899;49.966;7.106;2023-05-18T01:15:26;8.15;;;4.50;;
3767;SDS011;1899;49.966;7.106;2023-05-18T01:20:31;6.68;;;3.78;;
3767;SDS011;1899;49.966;7.106;2023-05-18T01:27:55;6.38;;;3.83;;
3767;SDS011;1899;49.966;7.106;2023-05-18T01:30:23;5.68;;;3.60;;
3767;SDS011;1899;49.966;7.106;2023-05-18T01:32:49;6.93;;;4.00;;
3767;SDS011;1899;49.966;7.106;2023-05-18T01:35:14;6.23;;;4.13;;
3767;SDS011;1899;49.966;7.106;2023-05-18T01:37:39;5.90;;;4.27;;
3767;SDS011;1899;49.966;7.106;2023-05-18T01:40:05;8.33;;;4.10;;
3767;SDS011;1899;49.966;7.106;2023-05-18T01:42:33;6.32;;;4.50;;
3767;SDS011;1899;49.966;7.106;2023-05-18T01:45:02;8.27;;;4.45;;
3767;SDS011;1899;49.966;7.106;2023-05-18T01:47:29;5.88;;;4.90;;
3767;SDS011;1899;49.966;7.106;2023-05-18T01:50:01;9.97;;;4.50;;
3767;SDS011;1899;49.966;7.106;2023-05-18T01:54:55;6.10;;;3.95;;
3767;SDS011;1899;49.966;7.106;2023-05-18T01:57:22;9.93;;;4.55;;
3767;SDS011;1899;49.966;7.106;2023-05-18T01:59:48;8.98;;;4.10;;
3767;SDS011;1899;49.966;7.106;2023-05-18T02:02:15;5.55;;;3.60;;
3767;SDS011;1899;49.966;7.106;2023-05-18T02:04:41;6.95;;;4.43;;
3767;SDS011;1899;49.966;7.106;2023-05-18T02:07:06;5.83;;;3.50;;
3767;SDS011;1899;49.966;7.106;2023-05-18T02:09:31;12.70;;;4.70;;
3767;SDS011;1899;49.966;7.106;2023-05-18T02:11:57;7.43;;;4.00;;
3767;SDS011;1899;49.966;7.106;2023-05-18T02:14:22;9.10;;;4.60;;
3767;SDS011;1899;49.966;7.106;2023-05-18T02:16:47;9.30;;;4.20;;
3767;SDS011;1899;49.966;7.106;2023-05-18T02:19:16;6.03;;;3.50;;
3767;SDS011;1899;49.966;7.106;2023-05-18T02:21:42;7.33;;;4.20;;
3767;SDS011;1899;49.966;7.106;2023-05-18T02:24:07;7.37;;;3.83;;
3767;SDS011;1899;49.966;7.106;2023-05-18T02:26:32;6.70;;;4.30;;
3767;SDS011;1899;49.966;7.106;2023-05-18T02:28:58;5.17;;;3.60;;
3767;SDS011;1899;49.966;7.106;2023-05-18T02:31:23;9.00;;;5.17;;
3767;SDS011;1899;49.966;7.106;2023-05-18T02:33:48;4.80;;;4.30;;
3767;SDS011;1899;49.966;7.106;2023-05-18T02:36:13;4.77;;;3.93;;
3767;SDS011;1899;49.966;7.106;2023-05-18T02:38:39;5.00;;;4.50;;
3767;SDS011;1899;49.966;7.106;2023-05-18T02:41:06;5.38;;;4.20;;
3767;SDS011;1899;49.966;7.106;2023-05-18T02:43:32;8.03;;;5.30;;
3767;SDS011;1899;49.966;7.106;2023-05-18T02:45:57;4.97;;;4.43;;
3767;SDS011;1899;49.966;7.106;2023-05-18T02:48:22;8.27;;;5.40;;
3767;SDS011;1899;49.966;7.106;2023-05-18T02:50:48;5.20;;;3.60;;
3767;SDS011;1899;49.966;7.106;2023-05-18T02:53:13;4.33;;;3.30;;
3767;SDS011;1899;49.966;7.106;2023-05-18T02:55:38;4.50;;;3.70;;
3767;SDS011;1899;49.966;7.106;2023-05-18T02:58:05;4.82;;;4.20;;
3767;SDS011;1899;49.966;7.106;2023-05-18T03:00:30;7.13;;;3.80;;
3767;SDS011;1899;49.966;7.106;2023-05-18T03:02:55;8.70;;;4.60;;
3767;SDS011;1899;49.966;7.106;2023-05-18T03:05:22;6.37;;;3.60;;
3767;SDS011;1899;49.966;7.106;2023-05-18T03:07:48;4.80;;;3.60;;
3767;SDS011;1899;49.966;7.106;2023-05-18T03:10:15;4.63;;;3.50;;
3767;SDS011;1899;49.966;7.106;2023-05-18T03:12:40;6.50;;;4.43;;
3767;SDS011;1899;49.966;7.106;2023-05-18T03:15:06;7.40;;;3.67;;
3767;SDS011;1899;49.966;7.106;2023-05-18T03:17:31;6.70;;;3.93;;
3767;SDS011;1899;49.966;7.106;2023-05-18T03:19:57;7.28;;;4.30;;
3767;SDS011;1899;49.966;7.106;2023-05-18T03:22:23;7.03;;;4.27;;
3767;SDS011;1899;49.966;7.106;2023-05-18T03:24:48;6.13;;;3.67;;
3767;SDS011;1899;49.966;7.106;2023-05-18T03:27:15;6.25;;;5.00;;
3767;SDS011;1899;49.966;7.106;2023-05-18T03:29:42;5.15;;;3.80;;
3767;SDS011;1899;49.966;7.106;2023-05-18T03:32:07;6.47;;;4.27;;
3767;SDS011;1899;49.966;7.106;2023-05-18T03:34:32;4.57;;;3.90;;
3767;SDS011;1899;49.966;7.106;2023-05-18T03:36:58;6.40;;;4.50;;
3767;SDS011;1899;49.966;7.106;2023-05-18T03:39:23;7.77;;;4.50;;
3767;SDS011;1899;49.966;7.106;2023-05-18T03:41:49;6.07;;;3.90;;
3767;SDS011;1899;49.966;7.106;2023-05-18T03:44:14;4.80;;;4.40;;
3767;SDS011;1899;49.966;7.106;2023-05-18T03:46:40;6.10;;;3.60;;
3767;SDS011;1899;49.966;7.106;2023-05-18T03:49:05;5.83;;;3.53;;
3767;SDS011;1899;49.966;7.106;2023-05-18T03:51:31;6.50;;;3.30;;
3767;SDS011;1899;49.966;7.106;2023-05-18T03:53:57;6.27;;;3.50;;
3767;SDS011;1899;49.966;7.106;2023-05-18T03:56:22;6.37;;;3.73;;
3767;SDS011;1899;49.966;7.106;2023-05-18T03:58:47;8.67;;;3.90;;
3767;SDS011;1899;49.966;7.106;2023-05-18T04:01:12;5.20;;;4.00;;
3767;SDS011;1899;49.966;7.106;2023-05-18T04:03:38;6.63;;;3.63;;
3767;SDS011;1899;49.966;7.106;2023-05-18T04:06:05;6.80;;;4.90;;
3767;SDS011;1899;49.966;7.106;2023-05-18T04:08:30;8.87;;;5.47;;
3767;SDS011;1899;49.966;7.106;2023-05-18T04:10:58;9.27;;;4.50;;
3767;SDS011;1899;49.966;7.106;2023-05-18T04:13:23;8.43;;;4.57;;
3767;SDS011;1899;49.966;7.106;2023-05-18T04:15:48;8.60;;;4.20;;
3767;SDS011;1899;49.966;7.106;2023-05-18T04:18:14;6.90;;;4.20;;
3767;SDS011;1899;49.966;7.106;2023-05-18T04:20:41;11.45;;;4.65;;
3767;SDS011;1899;49.966;7.106;2023-05-18T04:23:06;7.37;;;4.10;;
3767;SDS011;1899;49.966;7.106;2023-05-18T04:25:34;8.13;;;4.15;;
3767;SDS011;1899;49.966;7.106;2023-05-18T04:27:59;10.10;;;4.90;;
3767;SDS011;1899;49.966;7.106;2023-05-18T04:30:25;6.90;;;5.00;;
3767;SDS011;1899;49.966;7.106;2023-05-18T04:32:51;7.90;;;4.47;;
3767;SDS011;1899;49.966;7.106;2023-05-18T04:35:18;7.82;;;4.70;;
3767;SDS011;1899;49.966;7.106;2023-05-18T04:37:43;7.67;;;4.40;;
3767;SDS011;1899;49.966;7.106;2023-05-18T04:40:09;11.30;;;4.90;;
3767;SDS011;1899;49.966;7.106;2023-05-18T04:42:37;6.78;;;4.57;;
3767;SDS011;1899;49.966;7.106;2023-05-18T04:45:09;7.68;;;4.18;;
3767;SDS011;1899;49.966;7.106;2023-05-18T04:47:37;5.85;;;3.97;;
3767;SDS011;1899;49.966;7.106;2023-05-18T04:50:02;6.30;;;3.80;;
3767;SDS011;1899;49.966;7.106;2023-05-18T04:52:28;7.90;;;3.70;;
3767;SDS011;1899;49.966;7.106;2023-05-18T04:54:54;6.97;;;4.10;;
3767;SDS011;1899;49.966;7.106;2023-05-18T04:57:20;7.93;;;3.93;;
3767;SDS011;1899;49.966;7.106;2023-05-18T04:59:45;7.17;;;4.70;;
3767;SDS011;1899;49.966;7.106;2023-05-18T05:02:11;8.27;;;5.13;;
3767;SDS011;1899;49.966;7.106;2023-05-18T05:04:36;4.73;;;4.10;;
3767;SDS011;1899;49.966;7.106;2023-05-18T05:07:01;7.93;;;4.40;;
3767;SDS011;1899;49.966;7.106;2023-05-18T05:09:27;4.77;;;4.30;;
3767;SDS011;1899;49.966;7.106;2023-05-18T05:11:52;10.67;;;4.77;;
3767;SDS011;1899;49.966;7.106;2023-05-18T05:14:17;10.13;;;4.20;;
3767;SDS011;1899;49.966;7.106;2023-05-18T05:16:42;5.63;;;3.50;;
3767;SDS011;1899;49.966;7.106;2023-05-18T05:19:07;6.87;;;4.60;;
3767;SDS011;1899;49.966;7.106;2023-05-18T05:21:33;8.20;;;4.10;;
3767;SDS011;1899;49.966;7.106;2023-05-18T05:23:58;6.13;;;4.10;;
3767;SDS011;1899;49.966;7.106;2023-05-18T05:26:25;5.93;;;3.90;;
3767;SDS011;1899;49.966;7.106;2023-05-18T05:28:51;5.10;;;4.60;;
3767;SDS011;1899;49.966;7.106;2023-05-18T05:31:16;8.73;;;4.60;;
3767;SDS011;1899;49.966;7.106;2023-05-18T05:33:41;4.90;;;3.90;;
3767;SDS011;1899;49.966;7.106;2023-05-18T05:36:07;6.80;;;5.07;;
3767;SDS011;1899;49.966;7.106;2023-05-18T05:38:32;11.63;;;6.67;;
3767;SDS011;1899;49.966;7.106;2023-05-18T05:40:58;25.63;;;19.90;;
3767;SDS011;1899;49.966;7.106;2023-05-18T05:43:23;25.50;;;20.40;;
3767;SDS011;1899;49.966;7.106;2023-05-18T05:45:48;23.50;;;21.50;;
3767;SDS011;1899;49.966;7.106;2023-05-18T05:48:13;21.30;;;19.70;;
3767;SDS011;1899;49.966;7.106;2023-05-18T05:50:39;14.23;;;13.20;;
3767;SDS011;1899;49.966;7.106;2023-05-18T05:53:04;11.03;;;10.00;;
3767;SDS011;1899;49.966;7.106;2023-05-18T05:55:29;27.30;;;24.63;;
3767;SDS011;1899;49.966;7.106;2023-05-18T05:57:55;32.60;;;29.50;;
3767;SDS011;1899;49.966;7.106;2023-05-18T06:00:20;14.40;;;12.37;;
3767;SDS011;1899;49.966;7.106;2023-05-18T06:02:45;9.37;;;6.50;;
3767;SDS011;1899;49.966;7.106;2023-05-18T06:05:10;14.57;;;13.13;;
3767;SDS011;1899;49.966;7.106;2023-05-18T06:07:36;12.70;;;11.63;;
3767;SDS011;1899;49.966;7.106;2023-05-18T06:10:01;8.57;;;7.87;;
3767;SDS011;1899;49.966;7.106;2023-05-18T06:12:26;11.17;;;9.00;;
3767;SDS011;1899;49.966;7.106;2023-05-18T06:14:53;7.60;;;6.82;;
3767;SDS011;1899;49.966;7.106;2023-05-18T06:17:21;8.13;;;6.03;;
3767;SDS011;1899;49.966;7.106;2023-05-18T06:19:47;7.03;;;4.83;;
3767;SDS011;1899;49.966;7.106;2023-05-18T06:22:12;5.70;;;4.60;;
3767;SDS011;1899;49.966;7.106;2023-05-18T06:24:37;8.93;;;4.83;;
3767;SDS011;1899;49.966;7.106;2023-05-18T06:27:02;7.10;;;4.27;;
3767;SDS011;1899;49.966;7.106;2023-05-18T06:29:28;5.93;;;4.30;;
3767;SDS011;1899;49.966;7.106;2023-05-18T06:31:54;5.63;;;4.22;;
3767;SDS011;1899;49.966;7.106;2023-05-18T06:34:19;7.20;;;4.10;;
3767;SDS011;1899;49.966;7.106;2023-05-18T06:36:45;7.93;;;5.30;;
3767;SDS011;1899;49.966;7.106;2023-05-18T06:39:10;5.67;;;4.33;;
3767;SDS011;1899;49.966;7.106;2023-05-18T06:41:35;6.40;;;4.00;;
3767;SDS011;1899;49.966;7.106;2023-05-18T06:44:01;5.13;;;3.87;;
3767;SDS011;1899;49.966;7.106;2023-05-18T06:46:26;7.83;;;4.67;;
3767;SDS011;1899;49.966;7.106;2023-05-18T06:48:51;7.67;;;3.90;;
3767;SDS011;1899;49.966;7.106;2023-05-18T06:51:17;6.80;;;4.93;;
3767;SDS011;1899;49.966;7.106;2023-05-18T06:53:42;8.03;;;4.23;;
3767;SDS011;1899;49.966;7.106;2023-05-18T06:56:08;4.47;;;3.60;;
3767;SDS011;1899;49.966;7.106;2023-05-18T06:58:35;8.90;;;4.77;;
3767;SDS011;1899;49.966;7.106;2023-05-18T07:01:01;8.23;;;3.67;;
3767;SDS011;1899;49.966;7.106;2023-05-18T07:03:26;7.20;;;4.33;;
3767;SDS011;1899;49.966;7.106;2023-05-18T07:05:52;8.30;;;4.10;;
3767;SDS011;1899;49.966;7.106;2023-05-18T07:08:17;6.97;;;3.17;;
3767;SDS011;1899;49.966;7.106;2023-05-18T07:10:42;6.23;;;4.20;;
3767;SDS011;1899;49.966;7.106;2023-05-18T07:13:07;6.63;;;4.13;;
3767;SDS011;1899;49.966;7.106;2023-05-18T07:15:33;5.87;;;3.63;;
3767;SDS011;1899;49.966;7.106;2023-05-18T07:17:58;10.43;;;3.60;;
3767;SDS011;1899;49.966;7.106;2023-05-18T07:20:23;6.33;;;4.13;;
3767;SDS011;1899;49.966;7.106;2023-05-18T07:22:48;3.93;;;3.40;;
3767;SDS011;1899;49.966;7.106;2023-05-18T07:25:15;7.50;;;4.60;;
3767;SDS011;1899;49.966;7.106;2023-05-18T07:27:40;6.87;;;3.97;;
3767;SDS011;1899;49.966;7.106;2023-05-18T07:30:05;3.87;;;3.57;;
3767;SDS011;1899;49.966;7.106;2023-05-18T07:32:31;7.37;;;3.37;;
3767;SDS011;1899;49.966;7.106;2023-05-18T07:34:57;7.63;;;3.30;;
3767;SDS011;1899;49.966;7.106;2023-05-18T07:37:23;5.80;;;3.30;;
3767;SDS011;1899;49.966;7.106;2023-05-18T07:39:48;6.33;;;3.50;;
3767;SDS011;1899;49.966;7.106;2023-05-18T07:42:13;8.23;;;3.23;;
3767;SDS011;1899;49.966;7.106;2023-05-18T07:44:38;7.03;;;3.50;;
3767;SDS011;1899;49.966;7.106;2023-05-18T07:47:06;11.03;;;3.07;;
3767;SDS011;1899;49.966;7.106;2023-05-18T07:49:32;9.67;;;3.00;;
3767;SDS011;1899;49.966;7.106;2023-05-18T07:51:57;6.40;;;3.03;;
3767;SDS011;1899;49.966;7.106;2023-05-18T07:54:23;7.00;;;2.87;;
3767;SDS011;1899;49.966;7.106;2023-05-18T07:56:48;5.63;;;2.70;;
3767;SDS011;1899;49.966;7.106;2023-05-18T07:59:14;4.43;;;2.53;;
3767;SDS011;1899;49.966;7.106;2023-05-18T08:01:40;3.40;;;2.30;;
3767;SDS011;1899;49.966;7.106;2023-05-18T08:04:05;3.37;;;2.30;;
3767;SDS011;1899;49.966;7.106;2023-05-18T08:06:30;8.93;;;2.93;;
3767;SDS011;1899;49.966;7.106;2023-05-18T08:08:56;6.83;;;2.80;;
3767;SDS011;1899;49.966;7.106;2023-05-18T08:11:22;5.57;;;3.40;;
3767;SDS011;1899;49.966;7.106;2023-05-18T08:13:47;5.50;;;2.97;;
3767;SDS011;1899;49.966;7.106;2023-05-18T08:16:12;5.03;;;2.33;;
3767;SDS011;1899;49.966;7.106;2023-05-18T08:18:38;2.90;;;2.30;;
3767;SDS011;1899;49.966;7.106;2023-05-18T08:21:03;6.50;;;2.17;;
3767;SDS011;1899;49.966;7.106;2023-05-18T08:23:32;10.17;;;2.60;;
3767;SDS011;1899;49.966;7.106;2023-05-18T08:25:57;4.43;;;2.40;;
3767;SDS011;1899;49.966;7.106;2023-05-18T08:28:24;7.73;;;2.30;;
3767;SDS011;1899;49.966;7.106;2023-05-18T08:30:49;5.10;;;2.60;;
3767;SDS011;1899;49.966;7.106;2023-05-18T08:33:14;5.50;;;2.20;;
3767;SDS011;1899;49.966;7.106;2023-05-18T08:35:39;7.00;;;1.90;;
3767;SDS011;1899;49.966;7.106;2023-05-18T08:38:05;6.07;;;2.83;;
3767;SDS011;1899;49.966;7.106;2023-05-18T08:40:31;4.10;;;2.70;;
3767;SDS011;1899;49.966;7.106;2023-05-18T08:43:01;5.30;;;2.27;;
3767;SDS011;1899;49.966;7.106;2023-05-18T08:45:29;7.67;;;3.33;;
3767;SDS011;1899;49.966;7.106;2023-05-18T08:47:56;4.17;;;2.27;;
3767;SDS011;1899;49.966;7.106;2023-05-18T08:50:23;6.37;;;2.67;;
3767;SDS011;1899;49.966;7.106;2023-05-18T08:52:50;4.10;;;2.20;;
3767;SDS011;1899;49.966;7.106;2023-05-18T08:55:18;7.30;;;2.67;;
3767;SDS011;1899;49.966;7.106;2023-05-18T08:57:45;8.40;;;2.63;;
3767;SDS011;1899;49.966;7.106;2023-05-18T09:00:14;6.17;;;2.40;;
3767;SDS011;1899;49.966;7.106;2023-05-18T09:02:39;7.67;;;2.10;;
3767;SDS011;1899;49.966;7.106;2023-05-18T09:05:05;5.57;;;2.60;;
3767;SDS011;1899;49.966;7.106;2023-05-18T09:07:31;5.77;;;2.83;;
3767;SDS011;1899;49.966;7.106;2023-05-18T09:09:56;3.53;;;2.37;;
3767;SDS011;1899;49.966;7.106;2023-05-18T09:12:22;5.87;;;2.60;;
3767;SDS011;1899;49.966;7.106;2023-05-18T09:14:47;5.23;;;2.73;;
3767;SDS011;1899;49.966;7.106;2023-05-18T09:17:12;6.40;;;2.67;;
3767;SDS011;1899;49.966;7.106;2023-05-18T09:19:38;3.73;;;2.10;;
3767;SDS011;1899;49.966;7.106;2023-05-18T09:22:03;7.23;;;2.77;;
3767;SDS011;1899;49.966;7.106;2023-05-18T09:24:29;8.30;;;2.40;;
3767;SDS011;1899;49.966;7.106;2023-05-18T09:26:55;7.07;;;2.37;;
3767;SDS011;1899;49.966;7.106;2023-05-18T09:29:20;5.90;;;2.80;;
3767;SDS011;1899;49.966;7.106;2023-05-18T09:31:46;5.50;;;2.20;;
3767;SDS011;1899;49.966;7.106;2023-05-18T09:34:12;7.47;;;2.60;;
3767;SDS011;1899;49.966;7.106;2023-05-18T09:36:37;7.40;;;3.00;;
3767;SDS011;1899;49.966;7.106;2023-05-18T09:39:06;4.73;;;1.87;;
3767;SDS011;1899;49.966;7.106;2023-05-18T09:41:33;6.70;;;2.40;;
3767;SDS011;1899;49.966;7.106;2023-05-18T09:43:58;6.47;;;3.00;;
3767;SDS011;1899;49.966;7.106;2023-05-18T09:46:30;6.60;;;2.30;;
3767;SDS011;1899;49.966;7.106;2023-05-18T09:48:55;7.43;;;2.40;;
3767;SDS011;1899;49.966;7.106;2023-05-18T09:51:20;8.07;;;2.27;;
3767;SDS011;1899;49.966;7.106;2023-05-18T09:53:52;4.60;;;2.20;;
3767;SDS011;1899;49.966;7.106;2023-05-18T09:56:19;4.83;;;3.10;;
3767;SDS011;1899;49.966;7.106;2023-05-18T09:58:45;11.80;;;2.60;;
3767;SDS011;1899;49.966;7.106;2023-05-18T10:01:11;9.50;;;2.90;;
3767;SDS011;1899;49.966;7.106;2023-05-18T10:03:37;4.37;;;2.10;;
3767;SDS011;1899;49.966;7.106;2023-05-18T10:06:03;7.53;;;3.20;;
3767;SDS011;1899;49.966;7.106;2023-05-18T10:08:28;6.40;;;2.57;;
3767;SDS011;1899;49.966;7.106;2023-05-18T10:10:53;6.40;;;2.50;;
3767;SDS011;1899;49.966;7.106;2023-05-18T10:13:19;3.73;;;2.30;;
3767;SDS011;1899;49.966;7.106;2023-05-18T10:15:54;4.83;;;2.87;;
3767;SDS011;1899;49.966;7.106;2023-05-18T10:18:21;11.43;;;2.87;;
3767;SDS011;1899;49.966;7.106;2023-05-18T10:20:47;4.20;;;1.97;;
3767;SDS011;1899;49.966;7.106;2023-05-18T10:23:12;3.50;;;2.30;;
3767;SDS011;1899;49.966;7.106;2023-05-18T10:25:38;6.57;;;2.57;;
3767;SDS011;1899;49.966;7.106;2023-05-18T10:28:06;6.80;;;2.00;;
3767;SDS011;1899;49.966;7.106;2023-05-18T10:30:34;5.23;;;2.10;;
3767;SDS011;1899;49.966;7.106;2023-05-18T10:33:00;6.73;;;2.20;;
3767;SDS011;1899;49.966;7.106;2023-05-18T10:35:27;6.40;;;2.70;;
3767;SDS011;1899;49.966;7.106;2023-05-18T10:37:52;3.50;;;2.03;;
3767;SDS011;1899;49.966;7.106;2023-05-18T10:40:18;8.13;;;2.00;;
3767;SDS011;1899;49.966;7.106;2023-05-18T10:42:45;5.40;;;2.40;;
3767;SDS011;1899;49.966;7.106;2023-05-18T10:45:10;6.23;;;2.30;;
3767;SDS011;1899;49.966;7.106;2023-05-18T10:47:36;5.30;;;2.13;;
3767;SDS011;1899;49.966;7.106;2023-05-18T10:50:04;4.70;;;2.27;;
3767;SDS011;1899;49.966;7.106;2023-05-18T10:52:30;6.67;;;2.43;;
3767;SDS011;1899;49.966;7.106;2023-05-18T10:54:57;6.63;;;2.70;;
3767;SDS011;1899;49.966;7.106;2023-05-18T10:57:22;6.20;;;2.10;;
3767;SDS011;1899;49.966;7.106;2023-05-18T10:59:48;2.77;;;2.07;;
3767;SDS011;1899;49.966;7.106;2023-05-18T11:02:15;5.60;;;2.17;;
3767;SDS011;1899;49.966;7.106;2023-05-18T11:04:41;7.13;;;2.40;;
3767;SDS011;1899;49.966;7.106;2023-05-18T11:07:12;7.10;;;2.53;;
3767;SDS011;1899;49.966;7.106;2023-05-18T11:09:41;6.27;;;2.10;;
3767;SDS011;1899;49.966;7.106;2023-05-18T11:12:10;6.80;;;2.40;;
3767;SDS011;1899;49.966;7.106;2023-05-18T11:14:36;6.53;;;2.37;;
3767;SDS011;1899;49.966;7.106;2023-05-18T11:17:14;5.93;;;2.17;;
3767;SDS011;1899;49.966;7.106;2023-05-18T11:20:08;3.27;;;1.93;;
3767;SDS011;1899;49.966;7.106;2023-05-18T11:22:38;7.50;;;2.20;;
3767;SDS011;1899;49.966;7.106;2023-05-18T11:25:07;5.47;;;2.87;;
3767;SDS011;1899;49.966;7.106;2023-05-18T11:27:32;7.30;;;3.20;;
3767;SDS011;1899;49.966;7.106;2023-05-18T11:29:58;5.67;;;2.27;;
3767;SDS011;1899;49.966;7.106;2023-05-18T11:32:24;5.10;;;2.33;;
3767;SDS011;1899;49.966;7.106;2023-05-18T11:34:52;4.83;;;2.37;;
3767;SDS011;1899;49.966;7.106;2023-05-18T11:40:01;4.20;;;2.70;;
3767;SDS011;1899;49.966;7.106;2023-05-18T11:42:30;7.00;;;2.50;;
3767;SDS011;1899;49.966;7.106;2023-05-18T11:44:56;4.30;;;2.27;;
3767;SDS011;1899;49.966;7.106;2023-05-18T11:47:22;5.77;;;2.97;;
3767;SDS011;1899;49.966;7.106;2023-05-18T11:49:48;6.57;;;2.33;;
3767;SDS011;1899;49.966;7.106;2023-05-18T11:52:23;4.83;;;3.30;;
3767;SDS011;1899;49.966;7.106;2023-05-18T11:54:53;7.20;;;2.47;;
3767;SDS011;1899;49.966;7.106;2023-05-18T11:57:19;10.07;;;2.67;;
3767;SDS011;1899;49.966;7.106;2023-05-18T11:59:47;3.37;;;2.30;;
3767;SDS011;1899;49.966;7.106;2023-05-18T12:02:20;3.97;;;2.03;;
3767;SDS011;1899;49.966;7.106;2023-05-18T12:04:50;4.80;;;1.97;;
3767;SDS011;1899;49.966;7.106;2023-05-18T12:07:19;4.33;;;2.47;;
3767;SDS011;1899;49.966;7.106;2023-05-18T12:09:45;7.27;;;2.47;;
3767;SDS011;1899;49.966;7.106;2023-05-18T12:12:11;5.10;;;2.57;;
3767;SDS011;1899;49.966;7.106;2023-05-18T12:14:37;5.80;;;2.70;;
3767;SDS011;1899;49.966;7.106;2023-05-18T12:17:03;4.70;;;2.43;;
3767;SDS011;1899;49.966;7.106;2023-05-18T12:19:28;5.47;;;2.17;;
3767;SDS011;1899;49.966;7.106;2023-05-18T12:21:54;3.90;;;1.93;;
3767;SDS011;1899;49.966;7.106;2023-05-18T12:24:20;6.03;;;2.47;;
3767;SDS011;1899;49.966;7.106;2023-05-18T12:26:45;9.60;;;3.13;;
3767;SDS011;1899;49.966;7.106;2023-05-18T12:29:10;6.23;;;3.20;;
3767;SDS011;1899;49.966;7.106;2023-05-18T12:31:39;4.57;;;2.30;;
3767;SDS011;1899;49.966;7.106;2023-05-18T12:34:07;7.03;;;3.07;;
3767;SDS011;1899;49.966;7.106;2023-05-18T12:36:32;6.40;;;3.07;;
3767;SDS011;1899;49.966;7.106;2023-05-18T12:38:59;7.23;;;2.63;;
3767;SDS011;1899;49.966;7.106;2023-05-18T12:41:25;6.40;;;2.27;;
3767;SDS011;1899;49.966;7.106;2023-05-18T12:43:52;3.20;;;2.63;;
3767;SDS011;1899;49.966;7.106;2023-05-18T12:46:22;10.17;;;3.50;;
3767;SDS011;1899;49.966;7.106;2023-05-18T12:48:54;3.63;;;2.50;;
3767;SDS011;1899;49.966;7.106;2023-05-18T12:51:19;6.17;;;2.70;;
3767;SDS011;1899;49.966;7.106;2023-05-18T12:53:48;6.30;;;2.57;;
3767;SDS011;1899;49.966;7.106;2023-05-18T12:56:13;6.47;;;2.57;;
3767;SDS011;1899;49.966;7.106;2023-05-18T12:58:39;7.67;;;2.60;;
3767;SDS011;1899;49.966;7.106;2023-05-18T13:01:06;9.73;;;2.60;;
3767;SDS011;1899;49.966;7.106;2023-05-18T13:03:32;4.97;;;2.27;;
3767;SDS011;1899;49.966;7.106;2023-05-18T13:06:01;8.37;;;2.40;;
3767;SDS011;1899;49.966;7.106;2023-05-18T13:08:26;5.73;;;2.93;;
3767;SDS011;1899;49.966;7.106;2023-05-18T13:10:52;5.13;;;2.27;;
3767;SDS011;1899;49.966;7.106;2023-05-18T13:13:17;3.43;;;2.23;;
3767;SDS011;1899;49.966;7.106;2023-05-18T13:15:42;5.50;;;2.50;;
3767;SDS011;1899;49.966;7.106;2023-05-18T13:18:08;3.77;;;2.20;;
3767;SDS011;1899;49.966;7.106;2023-05-18T13:23:03;4.40;;;2.30;;
3767;SDS011;1899;49.966;7.106;2023-05-18T13:25:28;4.00;;;2.10;;
3767;SDS011;1899;49.966;7.106;2023-05-18T13:27:53;3.47;;;2.40;;
3767;SDS011;1899;49.966;7.106;2023-05-18T13:30:19;5.73;;;2.57;;
3767;SDS011;1899;49.966;7.106;2023-05-18T13:32:45;9.63;;;2.57;;
3767;SDS011;1899;49.966;7.106;2023-05-18T13:35:10;5.63;;;2.37;;
3767;SDS011;1899;49.966;7.106;2023-05-18T13:37:37;3.77;;;2.10;;
3767;SDS011;1899;49.966;7.106;2023-05-18T13:40:02;3.93;;;2.30;;
3767;SDS011;1899;49.966;7.106;2023-05-18T13:42:28;3.80;;;2.80;;
3767;SDS011;1899;49.966;7.106;2023-05-18T13:44:54;5.07;;;2.60;;
3767;SDS011;1899;49.966;7.106;2023-05-18T13:47:19;5.17;;;2.60;;
3767;SDS011;1899;49.966;7.106;2023-05-18T13:49:45;6.50;;;2.20;;
3767;SDS011;1899;49.966;7.106;2023-05-18T13:52:10;5.77;;;2.57;;
3767;SDS011;1899;49.966;7.106;2023-05-18T13:54:35;4.50;;;2.23;;
3767;SDS011;1899;49.966;7.106;2023-05-18T13:57:01;8.47;;;3.03;;
3767;SDS011;1899;49.966;7.106;2023-05-18T13:59:27;3.90;;;2.37;;
3767;SDS011;1899;49.966;7.106;2023-05-18T14:01:52;6.80;;;2.97;;
3767;SDS011;1899;49.966;7.106;2023-05-18T14:04:17;4.40;;;2.10;;
3767;SDS011;1899;49.966;7.106;2023-05-18T14:06:42;4.23;;;2.30;;
3767;SDS011;1899;49.966;7.106;2023-05-18T14:09:08;6.73;;;2.47;;
3767;SDS011;1899;49.966;7.106;2023-05-18T14:11:33;7.87;;;2.87;;
3767;SDS011;1899;49.966;7.106;2023-05-18T14:14:00;3.10;;;2.10;;
3767;SDS011;1899;49.966;7.106;2023-05-18T14:16:25;7.03;;;2.23;;
3767;SDS011;1899;49.966;7.106;2023-05-18T14:18:52;3.70;;;2.10;;
3767;SDS011;1899;49.966;7.106;2023-05-18T14:21:17;3.47;;;2.00;;
3767;SDS011;1899;49.966;7.106;2023-05-18T14:23:42;4.70;;;1.90;;
3767;SDS011;1899;49.966;7.106;2023-05-18T14:26:08;7.60;;;2.87;;
3767;SDS011;1899;49.966;7.106;2023-05-18T14:28:33;6.17;;;2.33;;
3767;SDS011;1899;49.966;7.106;2023-05-18T14:30:58;3.87;;;2.23;;
3767;SDS011;1899;49.966;7.106;2023-05-18T14:33:23;3.13;;;1.83;;
3767;SDS011;1899;49.966;7.106;2023-05-18T14:35:49;5.70;;;2.20;;
3767;SDS011;1899;49.966;7.106;2023-05-18T14:38:14;4.33;;;2.50;;
3767;SDS011;1899;49.966;7.106;2023-05-18T14:40:40;4.07;;;2.50;;
3767;SDS011;1899;49.966;7.106;2023-05-18T14:43:05;6.53;;;2.83;;
3767;SDS011;1899;49.966;7.106;2023-05-18T14:45:30;4.47;;;2.50;;
3767;SDS011;1899;49.966;7.106;2023-05-18T14:47:55;6.00;;;2.50;;
3767;SDS011;1899;49.966;7.106;2023-05-18T14:50:21;7.17;;;2.20;;
3767;SDS011;1899;49.966;7.106;2023-05-18T14:52:46;4.63;;;2.17;;
3767;SDS011;1899;49.966;7.106;2023-05-18T14:55:11;5.00;;;2.30;;
3767;SDS011;1899;49.966;7.106;2023-05-18T14:57:36;6.33;;;2.93;;
3767;SDS011;1899;49.966;7.106;2023-05-18T15:00:02;3.77;;;2.40;;
3767;SDS011;1899;49.966;7.106;2023-05-18T15:02:27;4.40;;;1.97;;
3767;SDS011;1899;49.966;7.106;2023-05-18T15:04:52;3.60;;;2.30;;
3767;SDS011;1899;49.966;7.106;2023-05-18T15:07:18;7.00;;;2.97;;
3767;SDS011;1899;49.966;7.106;2023-05-18T15:09:43;5.07;;;2.40;;
3767;SDS011;1899;49.966;7.106;2023-05-18T15:12:08;5.23;;;2.33;;
3767;SDS011;1899;49.966;7.106;2023-05-18T15:14:34;4.27;;;2.53;;
3767;SDS011;1899;49.966;7.106;2023-05-18T15:16:59;3.40;;;2.50;;
3767;SDS011;1899;49.966;7.106;2023-05-18T15:19:25;5.30;;;2.40;;
3767;SDS011;1899;49.966;7.106;2023-05-18T15:21:50;5.23;;;2.20;;
3767;SDS011;1899;49.966;7.106;2023-05-18T15:24:15;8.10;;;2.50;;